Time;durP1;ratioP1;P1;durP2;ratioP2;P2;SDS_P1;SDS_P2;PMS_P1;PMS_P2;Temp;Humidity;BMP_temperature;BMP_pressure;BME280_temperature;BME280_humidity;BME280_pressure;Samples;Min_cycle;Max_cycle;Signal;HPM_P1;HPM_P2
2021/07/03 00:01:19;;;;;;;10.60;9.33;;;;;;;16.71;74.52;96943.48;1787805;80;25942;-82
2021/07/03 00:03:47;;;;;;;10.58;9.15;;;;;;;16.75;74.51;96941.06;1787593;80;26594;-84
2021/07/03 00:06:13;;;;;;;11.33;9.48;;;;;;;16.77;74.44;96943.82;1783618;80;25869;-82
2021/07/03 00:08:40;;;;;;;11.50;9.73;;;;;;;16.77;74.36;96941.09;1777376;80;27525;-82
2021/07/03 00:11:08;;;;;;;11.95;9.43;;;;;;;16.78;74.45;96940.55;1767122;80;25676;-82
2021/07/03 00:13:36;;;;;;;10.63;9.53;;;;;;;16.78;74.42;96940.55;1767571;79;26353;-82
2021/07/03 00:16:04;;;;;;;9.40;8.50;;;;;;;16.73;74.34;96942.69;1781914;80;27055;-82
2021/07/03 00:18:31;;;;;;;12.05;9.23;;;;;;;16.71;74.44;96942.66;1775285;79;25694;-82
2021/07/03 00:20:58;;;;;;;10.53;9.43;;;;;;;16.69;74.52;96947.55;1745849;81;28089;-82
2021/07/03 00:23:25;;;;;;;10.78;9.68;;;;;;;16.70;74.58;96947.29;1751931;81;25682;-82
2021/07/03 00:25:52;;;;;;;13.88;8.98;;;;;;;16.70;74.53;96951.92;1740636;79;25719;-82
2021/07/03 00:28:18;;;;;;;11.35;8.88;;;;;;;16.67;74.45;96952.43;1763439;81;25889;-82
2021/07/03 00:30:45;;;;;;;12.65;9.50;;;;;;;16.69;74.47;96953.82;1759550;81;25761;-82
2021/07/03 00:33:11;;;;;;;9.88;8.38;;;;;;;16.71;74.44;96953.56;1755025;81;28132;-82
2021/07/03 00:35:38;;;;;;;9.83;8.30;;;;;;;16.71;74.46;96959.84;1744775;81;25670;-82
2021/07/03 00:38:04;;;;;;;9.33;8.33;;;;;;;16.73;74.41;96962.30;1749894;81;25741;-82
2021/07/03 00:40:31;;;;;;;11.18;9.20;;;;;;;16.75;74.51;96958.25;1733692;82;25747;-82
2021/07/03 00:42:58;;;;;;;9.78;8.78;;;;;;;16.76;74.42;96961.25;1727224;81;25711;-81
2021/07/03 00:45:24;;;;;;;9.53;8.53;;;;;;;16.76;74.36;96962.61;1736253;82;28318;-82
2021/07/03 00:47:51;;;;;;;12.33;9.08;;;;;;;16.78;74.26;96961.81;1727504;82;25682;-82
2021/07/03 00:50:18;;;;;;;9.93;8.60;;;;;;;16.79;74.24;96956.62;1736108;82;25659;-82
2021/07/03 00:52:45;;;;;;;10.15;8.20;;;;;;;16.79;74.23;96962.61;1736151;82;25817;-82
2021/07/03 00:55:15;;;;;;;11.00;9.33;;;;;;;16.78;74.22;96965.08;1736141;81;25840;-81
2021/07/03 00:57:43;;;;;;;10.28;9.23;;;;;;;16.77;74.14;96958.81;1736183;82;27424;-81
2021/07/03 01:00:12;;;;;;;11.10;9.15;;;;;;;16.78;74.02;96960.45;1715248;82;25815;-82
2021/07/03 01:02:40;;;;;;;12.70;9.08;;;;;;;16.83;73.92;96956.92;1736209;81;26013;-82
2021/07/03 01:05:07;;;;;;;9.80;8.78;;;;;;;16.81;73.83;96958.55;1736080;81;25885;-82
2021/07/03 01:07:34;;;;;;;10.53;9.05;;;;;;;16.79;73.93;96957.98;1736285;82;25252;-81
2021/07/03 01:10:01;;;;;;;10.95;9.95;;;;;;;16.81;73.89;96949.55;1736199;81;27351;-82
2021/07/03 01:12:28;;;;;;;13.08;10.03;;;;;;;16.82;73.84;96946.56;1715533;82;25731;-82
2021/07/03 01:14:54;;;;;;;10.68;9.68;;;;;;;16.82;73.82;96947.10;1735839;81;26254;-82
2021/07/03 01:17:21;;;;;;;11.08;9.73;;;;;;;16.81;73.70;96938.10;1720764;82;25695;-82
2021/07/03 01:19:51;;;;;;;10.93;9.38;;;;;;;16.77;73.77;96941.09;1722997;81;25751;-82
2021/07/03 01:22:18;;;;;;;10.03;9.03;;;;;;;16.79;73.81;96934.81;1740190;81;27627;-82
2021/07/03 01:24:44;;;;;;;13.22;9.98;;;;;;;16.82;73.81;96934.30;1735912;82;25785;-82
2021/07/03 01:27:14;;;;;;;10.90;9.83;;;;;;;16.84;73.81;96932.13;1724428;82;26387;-82
2021/07/03 01:29:42;;;;;;;10.48;9.38;;;;;;;16.82;73.74;96935.66;1729872;82;26321;-82
2021/07/03 01:32:09;;;;;;;17.00;10.98;;;;;;;16.80;73.64;96928.28;1736065;82;26145;-82
2021/07/03 01:34:36;;;;;;;11.08;9.85;;;;;;;16.79;73.68;96937.54;1731756;82;27540;-82
2021/07/03 01:37:03;;;;;;;11.68;10.50;;;;;;;16.78;73.57;96931.84;1732103;82;25849;-81
2021/07/03 01:39:30;;;;;;;12.35;10.75;;;;;;;16.76;73.58;96926.36;1716057;81;25853;-82
2021/07/03 01:41:57;;;;;;;12.95;11.55;;;;;;;16.78;73.54;96923.66;1725497;82;26581;-82
2021/07/03 01:44:25;;;;;;;13.85;11.05;;;;;;;16.82;73.53;96924.75;1741387;80;25849;-82
2021/07/03 01:46:56;;;;;;;15.13;11.95;;;;;;;16.82;73.59;96916.58;1743929;81;27542;-81
2021/07/03 01:49:24;;;;;;;12.25;10.98;;;;;;;16.81;73.54;96916.84;1734175;81;26303;-82
2021/07/03 01:51:52;;;;;;;12.90;11.53;;;;;;;16.74;73.53;96918.44;1744363;81;25778;-82
2021/07/03 01:54:18;;;;;;;14.07;12.50;;;;;;;16.74;73.63;96920.34;1725289;81;25845;-82
2021/07/03 01:56:57;;;;;;;13.20;11.90;;;;;;;16.76;73.60;96920.91;1725233;81;25670;-82
2021/07/03 01:59:15;;;;;;;12.98;11.53;;;;;;;16.75;73.61;96917.36;1760280;80;26957;-82
2021/07/03 02:01:41;;;;;;;12.75;10.55;;;;;;;16.72;73.66;96919.23;1724956;83;25665;-82
2021/07/03 02:04:08;;;;;;;13.25;11.85;;;;;;;16.70;73.70;96917.31;1733920;81;25809;-82
2021/07/03 02:06:35;;;;;;;13.90;12.35;;;;;;;16.71;73.83;96917.59;1746220;81;25808;-82
2021/07/03 02:09:01;;;;;;;14.93;12.58;;;;;;;16.73;73.72;96914.61;1725204;80;25715;-82
2021/07/03 02:11:28;;;;;;;13.45;12.07;;;;;;;16.74;73.75;96912.99;1743388;80;28404;-83
2021/07/03 02:13:54;;;;;;;14.50;12.05;;;;;;;16.79;73.87;96906.73;1746077;82;26136;-82
2021/07/03 02:16:21;;;;;;;12.63;11.30;;;;;;;16.78;73.94;96907.30;1746082;82;25773;-82
2021/07/03 02:18:47;;;;;;;14.38;12.25;;;;;;;16.81;74.02;96909.48;1746254;82;25695;-82
2021/07/03 02:21:14;;;;;;;13.80;12.40;;;;;;;16.84;74.04;96910.33;1746344;81;26068;-82
2021/07/03 02:23:41;;;;;;;15.05;12.15;;;;;;;16.85;74.08;96911.97;1746431;82;28444;-83
2021/07/03 02:26:07;;;;;;;14.55;12.73;;;;;;;16.84;74.07;96911.69;1746170;82;26011;-82
2021/07/03 02:28:34;;;;;;;14.68;13.05;;;;;;;16.79;74.03;96907.55;1746512;82;25680;-82
2021/07/03 02:31:01;;;;;;;16.45;13.90;;;;;;;16.78;74.10;96908.67;1744348;81;25991;-82
2021/07/03 02:33:27;;;;;;;15.18;13.40;;;;;;;16.77;73.91;96905.66;1746208;80;25803;-82
2021/07/03 02:35:54;;;;;;;16.85;12.53;;;;;;;16.77;73.94;96902.94;1745471;80;27232;-82
2021/07/03 02:38:21;;;;;;;16.50;13.43;;;;;;;16.81;73.92;96904.57;1746305;80;25770;-82
2021/07/03 02:40:48;;;;;;;15.50;13.90;;;;;;;16.84;73.88;96899.97;1745930;81;25765;-82
2021/07/03 02:43:14;;;;;;;17.40;13.22;;;;;;;16.83;73.82;96903.77;1746353;82;25755;-83
2021/07/03 02:45:41;;;;;;;16.67;14.13;;;;;;;16.82;73.80;96901.59;1745078;82;25832;-83
2021/07/03 02:48:08;;;;;;;20.88;13.83;;;;;;;16.87;73.76;96904.90;1753524;81;27466;-82
2021/07/03 02:50:34;;;;;;;15.38;13.78;;;;;;;16.87;73.63;96905.72;1735645;81;25758;-82
2021/07/03 02:53:01;;;;;;;15.08;12.78;;;;;;;16.89;73.61;96900.01;1725283;81;25914;-82
2021/07/03 02:55:28;;;;;;;15.83;13.00;;;;;;;16.90;73.71;96907.11;1725242;81;25776;-82
2021/07/03 02:57:55;;;;;;;15.08;13.58;;;;;;;16.87;73.78;96908.45;1725230;81;25286;-82
2021/07/03 03:00:22;;;;;;;16.12;13.15;;;;;;;16.85;73.81;96921.52;1725182;81;27574;-82
2021/07/03 03:02:48;;;;;;;16.00;13.93;;;;;;;16.84;73.81;96915.78;1739579;81;25719;-82
2021/07/03 03:05:16;;;;;;;14.58;13.13;;;;;;;16.88;73.76;96917.45;1744780;81;25753;-82
2021/07/03 03:07:43;;;;;;;15.93;14.25;;;;;;;16.88;73.80;96918.27;1725239;81;25747;-82
2021/07/03 03:10:16;;;;;;;16.65;14.35;;;;;;;16.90;73.74;96916.08;1727346;81;25730;-83
2021/07/03 03:12:44;;;;;;;16.73;14.13;;;;;;;16.96;73.68;96918.84;1735698;81;27276;-82
2021/07/03 03:15:13;;;;;;;16.90;14.18;;;;;;;16.98;73.60;96918.05;1744518;80;25732;-83
2021/07/03 03:17:41;;;;;;;16.07;14.10;;;;;;;16.99;73.54;96915.06;1746436;81;25722;-82
2021/07/03 03:20:11;;;;;;;14.87;13.10;;;;;;;17.00;73.50;96915.88;1725318;81;25843;-82
2021/07/03 03:22:39;;;;;;;15.32;13.40;;;;;;;17.00;73.47;96913.16;1725318;81;25774;-82
2021/07/03 03:25:07;;;;;;;14.23;12.75;;;;;;;17.00;73.46;96912.61;1742036;81;27424;-82
2021/07/03 03:27:34;;;;;;;15.15;13.60;;;;;;;17.04;73.43;96910.16;1728874;81;25743;-82
2021/07/03 03:30:00;;;;;;;14.98;13.30;;;;;;;17.02;73.38;96912.35;1725039;81;25726;-82
2021/07/03 03:32:27;;;;;;;14.60;13.10;;;;;;;17.02;73.39;96908.27;1727133;81;26641;-82
2021/07/03 03:34:53;;;;;;;15.20;13.70;;;;;;;17.04;73.38;96906.89;1725117;81;25753;-82
2021/07/03 03:37:20;;;;;;;14.28;12.75;;;;;;;17.07;73.32;96907.73;1734340;81;27619;-82
2021/07/03 03:39:47;;;;;;;17.80;12.73;;;;;;;17.05;73.36;96915.89;1725233;81;25781;-82
2021/07/03 03:42:13;;;;;;;14.95;12.47;;;;;;;17.03;73.34;96905.78;1722376;81;25750;-82
2021/07/03 03:44:40;;;;;;;17.52;12.93;;;;;;;16.97;73.50;96906.86;1786390;80;25886;-82
2021/07/03 03:47:06;;;;;;;19.23;13.98;;;;;;;16.97;73.54;96910.95;1752769;81;25747;-83
2021/07/03 03:49:33;;;;;;;21.10;14.38;;;;;;;16.99;73.52;96910.15;1731458;81;27392;-82
2021/07/03 03:52:00;;;;;;;14.63;13.05;;;;;;;17.00;73.51;96906.34;1716240;80;25792;-83
2021/07/03 03:54:27;;;;;;;16.50;13.53;;;;;;;17.02;73.48;96911.81;1761710;80;25757;-82
2021/07/03 03:59:39;;;;;;;17.07;14.58;;;;;;;17.04;73.49;96900.61;1755692;81;25839;-82
2021/07/03 04:02:06;;;;;;;17.12;13.88;;;;;;;17.03;73.52;96907.15;1760796;81;27593;-82
2021/07/03 04:04:32;;;;;;;20.57;14.28;;;;;;;17.05;73.50;96913.16;1760491;80;25868;-83
2021/07/03 04:06:59;;;;;;;17.92;13.53;;;;;;;17.06;73.38;96909.35;1752990;81;25748;-82
2021/07/03 04:09:25;;;;;;;19.25;14.90;;;;;;;17.04;73.40;96908.25;1734685;81;26414;-81
2021/07/03 04:11:53;;;;;;;17.37;15.58;;;;;;;17.01;73.35;96914.25;1740961;81;25702;-82
2021/07/03 04:14:19;;;;;;;18.82;15.40;;;;;;;16.95;73.44;96921.29;1759454;79;27475;-82
2021/07/03 04:16:46;;;;;;;19.32;15.65;;;;;;;16.93;73.53;96918.83;1744680;79;25655;-81
2021/07/03 04:19:13;;;;;;;19.90;15.00;;;;;;;16.92;73.64;96914.45;1740933;79;25852;-83
2021/07/03 04:21:39;;;;;;;19.32;16.40;;;;;;;16.92;73.55;96914.45;1746803;81;25751;-81
2021/07/03 04:24:06;;;;;;;18.05;16.05;;;;;;;16.92;73.53;96916.64;1738403;81;25731;-85
2021/07/03 04:26:32;;;;;;;25.10;18.00;;;;;;;16.89;73.58;96915.00;1762730;81;27341;-82
2021/07/03 04:28:59;;;;;;;25.00;18.50;;;;;;;16.85;73.63;96909.25;1761688;81;25732;-87
2021/07/03 04:31:25;;;;;;;23.25;19.62;;;;;;;16.79;73.64;96913.00;1760765;81;25752;-82
2021/07/03 04:33:52;;;;;;;24.63;19.82;;;;;;;16.75;73.72;96911.91;1742996;81;25766;-83
2021/07/03 04:36:19;;;;;;;26.30;21.00;;;;;;;16.72;73.86;96916.52;1742637;81;25847;-82
2021/07/03 04:38:45;;;;;;;26.37;20.75;;;;;;;16.72;73.97;96912.97;1762504;81;28403;-85
2021/07/03 04:41:12;;;;;;;26.70;20.37;;;;;;;16.73;74.09;96914.07;1737310;81;25758;-82
2021/07/03 04:43:38;;;;;;;23.30;18.95;;;;;;;16.75;74.10;96921.45;1747336;79;25776;-82
2021/07/03 04:46:05;;;;;;;24.90;19.70;;;;;;;16.74;74.14;96919.80;1761214;81;25742;-82
2021/07/03 04:48:31;;;;;;;22.67;19.37;;;;;;;16.75;74.29;96920.09;1734720;81;25842;-82
2021/07/03 04:50:58;;;;;;;25.43;19.15;;;;;;;16.73;74.25;96923.61;1756199;81;27475;-82
2021/07/03 04:53:25;;;;;;;23.60;19.30;;;;;;;16.75;74.26;96914.64;1760704;81;25798;-82
2021/07/03 04:55:51;;;;;;;23.02;19.15;;;;;;;16.78;74.35;96919.57;1744493;80;25848;-81
2021/07/03 04:58:18;;;;;;;26.87;19.17;;;;;;;16.77;74.41;96917.92;1740335;81;26622;-83
2021/07/03 05:00:44;;;;;;;25.82;18.12;;;;;;;16.79;74.43;96921.72;1760742;80;25750;-82
2021/07/03 05:03:11;;;;;;;22.48;17.75;;;;;;;16.79;74.44;96917.63;1757260;81;27590;-82
2021/07/03 05:05:37;;;;;;;23.90;18.42;;;;;;;16.79;74.66;96923.09;1747946;81;25677;-82
2021/07/03 05:08:05;;;;;;;24.87;17.95;;;;;;;16.80;74.68;96920.10;1742277;81;26225;-81
2021/07/03 05:10:31;;;;;;;22.75;18.62;;;;;;;16.81;74.72;96924.47;1745459;81;25687;-81
2021/07/03 05:12:58;;;;;;;24.10;18.77;;;;;;;16.80;74.77;96929.64;1744665;81;25277;-82
2021/07/03 05:15:25;;;;;;;22.13;17.52;;;;;;;16.76;74.82;96923.09;1759642;81;27600;-81
2021/07/03 05:17:52;;;;;;;25.02;18.30;;;;;;;16.78;74.96;96925.02;1762117;81;25825;-81
2021/07/03 05:20:19;;;;;;;27.00;18.37;;;;;;;16.76;74.97;96935.36;1764626;81;25781;-81
2021/07/03 05:22:45;;;;;;;20.62;17.90;;;;;;;16.74;75.03;96928.52;1767142;79;26353;-82
2021/07/03 05:25:13;;;;;;;22.80;18.15;;;;;;;16.77;75.15;96926.64;1745768;79;25734;-81
2021/07/03 05:27:41;;;;;;;20.35;17.23;;;;;;;16.80;75.18;96924.19;1759252;81;28793;-82
2021/07/03 05:30:11;;;;;;;23.90;18.37;;;;;;;16.86;75.05;96924.52;1748296;81;25813;-82
2021/07/03 05:32:52;;;;;;;27.73;18.60;;;;;;;16.91;75.04;96921.80;1737602;81;25988;-81
2021/07/03 05:35:21;;;;;;;21.02;16.97;;;;;;;16.97;75.03;96915.86;1750457;81;25281;-81
2021/07/03 05:37:48;;;;;;;22.75;16.70;;;;;;;17.04;75.06;96919.70;1755758;79;25709;-81
2021/07/03 05:40:16;;;;;;;25.23;17.35;;;;;;;17.10;74.97;96903.66;1747422;81;27295;-81
2021/07/03 05:42:44;;;;;;;20.60;16.62;;;;;;;17.17;74.90;96912.41;1759711;81;25760;-81
2021/07/03 05:45:16;;;;;;;24.30;18.02;;;;;;;17.17;74.85;96905.59;1742860;81;25730;-81
2021/07/03 05:47:50;;;;;;;18.70;16.60;;;;;;;17.22;74.67;96912.45;1752569;81;26594;-83
2021/07/03 05:50:14;;;;;;;25.55;17.40;;;;;;;17.25;74.40;96914.66;1749545;81;25770;-83
2021/07/03 05:52:40;;;;;;;20.52;15.43;;;;;;;17.25;74.32;96920.93;1744343;81;27560;-81
2021/07/03 05:55:08;;;;;;;18.12;15.50;;;;;;;17.29;74.19;96919.84;1749572;81;25707;-82
2021/07/03 05:57:34;;;;;;;18.67;15.50;;;;;;;17.29;74.12;96920.66;1757482;81;25658;-81
2021/07/03 06:00:02;;;;;;;21.75;16.15;;;;;;;17.34;74.02;96928.59;1737739;80;25812;-81
2021/07/03 06:02:29;;;;;;;18.82;16.15;;;;;;;17.37;73.97;96926.17;1739748;81;25814;-80
2021/07/03 06:04:56;;;;;;;21.50;15.50;;;;;;;17.37;73.98;96933.53;1749622;81;27422;-80
2021/07/03 06:07:22;;;;;;;18.65;15.28;;;;;;;17.37;73.85;96935.72;1740256;81;25706;-81
2021/07/03 06:09:49;;;;;;;20.77;16.32;;;;;;;17.36;73.99;96932.70;1757716;81;25745;-81
2021/07/03 06:12:15;;;;;;;17.80;15.15;;;;;;;17.35;74.13;96935.70;1740553;80;26358;-80
2021/07/03 06:14:42;;;;;;;22.70;15.23;;;;;;;17.41;74.06;96935.98;1759025;81;25276;-81
2021/07/03 06:17:13;;;;;;;19.95;14.40;;;;;;;17.42;73.81;96941.18;1748295;81;27515;-81
2021/07/03 06:19:37;;;;;;;17.15;14.50;;;;;;;17.44;73.71;96949.92;1738350;81;25903;-82
2021/07/03 06:22:04;;;;;;;14.95;13.10;;;;;;;17.49;73.61;96954.59;1758400;80;25769;-81
2021/07/03 06:24:30;;;;;;;18.62;14.70;;;;;;;17.49;73.47;96949.14;1763030;80;26254;-81
2021/07/03 06:26:57;;;;;;;16.95;13.45;;;;;;;17.54;73.63;96950.50;1754330;81;25657;-81
2021/07/03 06:29:23;;;;;;;19.70;13.00;;;;;;;17.60;73.47;96953.00;1751339;81;28338;-81
2021/07/03 06:31:50;;;;;;;18.02;13.08;;;;;;;17.72;73.37;96952.80;1755428;80;25795;-82
2021/07/03 06:34:16;;;;;;;17.12;12.68;;;;;;;17.83;73.21;96955.02;1734740;81;25825;-85
2021/07/03 06:36:43;;;;;;;16.20;12.47;;;;;;;17.91;72.98;96955.86;1744959;81;25753;-82
2021/07/03 06:39:10;;;;;;;17.55;12.80;;;;;;;17.92;72.56;96953.41;1754750;80;25235;-83
2021/07/03 06:41:36;;;;;;;17.02;12.98;;;;;;;17.97;72.32;96954.25;1732289;81;27358;-80
2021/07/03 06:44:03;;;;;;;15.15;11.88;;;;;;;17.94;72.16;96960.24;1751443;79;25853;-81
2021/07/03 06:46:30;;;;;;;13.88;11.53;;;;;;;17.98;72.11;96956.44;1760354;80;25784;-82
2021/07/03 06:48:57;;;;;;;13.72;10.95;;;;;;;18.03;71.82;96948.23;1760734;81;26386;-86
2021/07/03 06:51:24;;;;;;;16.60;11.68;;;;;;;18.12;71.76;96953.44;1764663;81;25250;-85
2021/07/03 06:53:53;;;;;;;11.28;10.08;;;;;;;18.20;71.57;96949.38;1763055;81;27575;-81
2021/07/03 06:56:19;;;;;;;14.60;10.15;;;;;;;18.23;71.14;96955.09;1757712;81;25712;-82
2021/07/03 06:58:46;;;;;;;17.10;11.80;;;;;;;18.27;70.96;96945.28;1747296;81;25816;-81
2021/07/03 07:01:12;;;;;;;14.83;11.73;;;;;;;18.27;70.80;96960.30;1743585;81;25905;-82
2021/07/03 07:03:39;;;;;;;13.75;10.55;;;;;;;18.29;70.46;96957.30;1765001;80;26380;-85
2021/07/03 07:06:06;;;;;;;14.93;10.60;;;;;;;18.34;70.32;96951.31;1762029;80;27513;-82
2021/07/03 07:08:32;;;;;;;15.83;10.60;;;;;;;18.38;69.98;96952.11;1743109;81;25831;-85
2021/07/03 07:10:59;;;;;;;12.47;10.48;;;;;;;18.40;69.88;96950.76;1762705;81;25771;-83
2021/07/03 07:13:25;;;;;;;12.00;9.98;;;;;;;18.35;69.81;96946.09;1738581;81;26289;-86
2021/07/03 07:15:52;;;;;;;12.25;10.28;;;;;;;18.35;69.79;96952.14;1739810;81;25739;-85
2021/07/03 07:18:18;;;;;;;13.68;9.10;;;;;;;18.33;69.50;96959.78;1749371;80;27593;-80
2021/07/03 07:20:45;;;;;;;12.75;9.75;;;;;;;18.29;69.19;96959.49;1756343;81;25291;-82
2021/07/03 07:23:12;;;;;;;18.20;9.25;;;;;;;18.29;68.99;96950.48;1747112;80;25814;-81
2021/07/03 07:25:38;;;;;;;11.55;8.93;;;;;;;18.28;69.11;96957.03;1758585;80;26298;-83
2021/07/03 07:28:05;;;;;;;16.97;9.90;;;;;;;18.31;69.05;96962.78;1746239;81;25762;-81
2021/07/03 07:30:32;;;;;;;13.28;9.33;;;;;;;18.29;69.03;96963.59;1743858;79;27195;-81
2021/07/03 07:32:59;;;;;;;15.15;9.85;;;;;;;18.33;69.04;96966.06;1754596;81;26456;-84
2021/07/03 07:35:25;;;;;;;13.45;9.65;;;;;;;18.38;68.93;96960.31;1757617;81;26609;-85
2021/07/03 07:37:52;;;;;;;13.98;9.80;;;;;;;18.43;68.62;96967.16;1755193;81;25770;-82
2021/07/03 07:40:20;;;;;;;14.60;9.88;;;;;;;18.43;68.47;96963.88;1750465;81;26279;-85
2021/07/03 07:42:47;;;;;;;11.20;9.73;;;;;;;18.40;68.27;96972.62;1754608;81;26773;-85
2021/07/03 07:45:14;;;;;;;13.58;10.68;;;;;;;18.39;68.35;96968.79;1700109;83;25821;-83
2021/07/03 07:47:43;;;;;;;16.15;11.03;;;;;;;18.40;68.21;96971.80;1733273;81;25709;-81
2021/07/03 07:50:10;;;;;;;14.58;10.55;;;;;;;18.43;68.15;96980.83;1757655;81;26046;-80
2021/07/03 07:52:37;;;;;;;13.95;11.18;;;;;;;18.50;68.09;96974.53;1742577;81;25839;-83
2021/07/03 07:55:04;;;;;;;11.78;9.90;;;;;;;18.58;68.02;96969.40;1758757;81;28294;-83
2021/07/03 07:57:31;;;;;;;12.80;9.90;;;;;;;18.62;67.62;96966.38;1744550;81;25233;-83
2021/07/03 08:02:33;;;;;;;13.32;10.43;;;;;;;18.72;67.34;96966.13;1849181;75;25704;-87
2021/07/03 08:05:00;;;;;;;11.48;10.23;;;;;;;18.67;67.11;96969.13;1807207;78;25692;-81
2021/07/03 08:07:27;;;;;;;15.45;11.22;;;;;;;18.63;67.03;96963.09;1821565;78;28384;-84
2021/07/03 08:09:53;;;;;;;16.82;11.00;;;;;;;18.64;67.03;96963.38;1813919;78;25776;-83
2021/07/03 08:12:20;;;;;;;18.15;11.15;;;;;;;18.66;67.01;96959.82;1814289;78;25685;-83
2021/07/03 08:14:46;;;;;;;16.15;10.60;;;;;;;18.68;66.99;96969.94;1804038;78;26485;-83
2021/07/03 08:17:13;;;;;;;15.13;10.40;;;;;;;18.73;66.93;96968.56;1815123;78;26351;-82
2021/07/03 08:19:39;;;;;;;11.63;9.93;;;;;;;18.76;66.86;96963.92;1817288;77;26964;-83
2021/07/03 08:22:06;;;;;;;17.23;10.88;;;;;;;18.84;66.95;96962.53;1821496;77;25796;-85
2021/07/03 08:24:33;;;;;;;16.52;11.55;;;;;;;18.91;66.76;96976.22;1820361;77;25272;-83
2021/07/03 08:27:00;;;;;;;15.13;10.58;;;;;;;18.91;66.85;96970.75;1821648;77;25665;-84
2021/07/03 08:29:26;;;;;;;12.95;9.93;;;;;;;18.90;66.95;96958.17;1821663;77;25756;-83
2021/07/03 08:31:53;;;;;;;14.90;10.10;;;;;;;18.92;66.77;96962.82;1814122;77;28392;-82
2021/07/03 08:34:20;;;;;;;13.30;9.65;;;;;;;19.00;66.56;96962.25;1816484;77;25674;-85
2021/07/03 08:36:46;;;;;;;14.05;10.40;;;;;;;19.02;66.28;96963.34;1803803;77;25753;-87
2021/07/03 08:39:13;;;;;;;14.73;10.65;;;;;;;19.05;66.24;96969.09;1817088;77;26027;-83
2021/07/03 08:41:41;;;;;;;14.38;9.60;;;;;;;19.05;66.19;96962.27;1816870;77;25737;-83
2021/07/03 08:44:13;;;;;;;13.05;9.43;;;;;;;19.05;66.14;96952.69;1811277;78;28042;-84
2021/07/03 08:46:44;;;;;;;16.60;10.20;;;;;;;19.06;66.30;96957.61;1798962;77;26289;-84
2021/07/03 08:49:13;;;;;;;13.88;9.60;;;;;;;18.96;66.25;96960.33;1790449;78;25768;-84
2021/07/03 08:51:46;;;;;;;16.15;10.10;;;;;;;18.93;66.63;96959.54;1804034;77;25935;-89
2021/07/03 08:54:12;;;;;;;16.85;9.45;;;;;;;19.08;66.72;96956.77;1803312;77;26411;-83
2021/07/03 08:56:39;;;;;;;10.32;8.35;;;;;;;19.42;66.55;96954.23;1795267;77;27354;-83
2021/07/03 08:59:20;;;;;;;15.18;9.68;;;;;;;19.64;65.96;96952.55;1793465;77;25755;-85
2021/07/03 09:01:53;;;;;;;12.25;9.50;;;;;;;19.69;65.62;96958.80;1806314;78;25784;-84
2021/07/03 09:04:21;;;;;;;;;;;;;;;19.73;65.37;96951.67;1799871;77;25745;-86
2021/07/03 09:06:48;;;;;;;11.12;9.00;;;;;;;19.78;65.17;96948.92;1812100;77;25695;-81
2021/07/03 09:09:25;;;;;;;10.55;8.38;;;;;;;19.74;65.27;96951.13;1799758;77;27416;-83
2021/07/03 09:11:54;;;;;;;10.05;8.93;;;;;;;19.77;65.10;96956.88;1797539;77;25943;-81
2021/07/03 09:14:26;;;;;;;10.72;8.30;;;;;;;19.78;65.23;96951.66;1810800;77;26282;-84
2021/07/03 09:16:59;;;;;;;9.73;8.73;;;;;;;19.80;64.80;96950.56;1815686;77;34673;-84
2021/07/03 09:19:30;;;;;;;12.18;8.73;;;;;;;19.82;64.62;96945.60;1814015;77;25781;-83
2021/07/03 09:21:58;;;;;;;13.25;8.40;;;;;;;19.82;64.52;96948.34;1794334;78;27488;-87
2021/07/03 09:24:31;;;;;;;9.35;8.43;;;;;;;19.73;64.46;96951.67;1793030;78;25812;-84
2021/07/03 09:27:03;;;;;;;11.30;8.23;;;;;;;19.70;64.32;96950.86;1809133;78;26049;-83
2021/07/03 09:29:31;;;;;;;12.73;8.80;;;;;;;19.66;64.35;96951.17;1807839;77;25809;-82
2021/07/03 09:32:08;;;;;;;14.60;7.83;;;;;;;19.65;64.06;96949.53;1799399;78;25729;-82
2021/07/03 09:34:37;;;;;;;8.50;7.60;;;;;;;19.61;64.09;96948.44;1805944;77;27361;-85
2021/07/03 09:37:05;;;;;;;12.80;7.83;;;;;;;19.62;63.88;96946.52;1800108;78;25763;-85
2021/07/03 09:39:32;;;;;;;9.48;8.03;;;;;;;19.62;63.87;96939.13;1800366;77;25824;-84
2021/07/03 09:41:59;;;;;;;9.80;8.23;;;;;;;19.56;63.86;96936.13;1794183;77;25740;-85
2021/07/03 09:44:26;;;;;;;13.30;8.20;;;;;;;19.53;64.13;96938.08;1793541;78;25715;-86
2021/07/03 09:46:54;;;;;;;11.03;7.75;;;;;;;19.47;64.02;96944.63;1800796;78;27251;-84
2021/07/03 09:49:31;;;;;;;13.28;8.45;;;;;;;19.49;64.18;96947.12;1796256;77;26451;-83
2021/07/03 09:52:00;;;;;;;14.10;9.08;;;;;;;19.50;64.14;96946.84;1796651;78;25780;-84
2021/07/03 09:54:29;;;;;;;11.00;8.13;;;;;;;19.49;63.94;96945.20;1797254;77;25759;-85
2021/07/03 09:57:00;;;;;;;11.40;8.93;;;;;;;19.44;64.02;96935.63;1805367;77;25825;-84
2021/07/03 09:59:31;;;;;;;13.15;8.68;;;;;;;19.46;63.96;96937.51;1797923;77;27359;-84
2021/07/03 10:01:59;;;;;;;9.68;8.65;;;;;;;19.45;64.18;96938.60;1799348;77;25814;-83
2021/07/03 10:04:26;;;;;;;12.75;8.30;;;;;;;19.47;64.37;96941.89;1801691;77;25681;-83
2021/07/03 10:07:04;;;;;;;9.70;8.15;;;;;;;19.54;64.17;96934.80;1803424;79;25693;-88
2021/07/03 10:09:57;;;;;;;14.70;8.73;;;;;;;19.59;63.86;96928.73;1725031;81;25768;-84
2021/07/03 10:12:30;;;;;;;13.60;8.17;;;;;;;19.69;63.92;96925.94;1710601;81;27499;-84
2021/07/03 10:14:58;;;;;;;10.15;9.13;;;;;;;19.75;64.12;96924.84;1755417;81;25853;-81
2021/07/03 10:17:29;;;;;;;14.33;8.68;;;;;;;19.75;63.78;96924.84;1812890;79;25719;-83
2021/07/03 10:19:57;;;;;;;12.15;8.63;;;;;;;19.73;63.53;96928.95;1812308;77;25621;-83
2021/07/03 10:22:30;;;;;;;11.53;8.18;;;;;;;19.76;63.49;96926.48;1812768;78;25784;-83
2021/07/03 10:25:12;;;;;;;11.35;8.08;;;;;;;19.80;63.42;96936.87;1806480;79;27345;-83
2021/07/03 10:27:52;;;;;;;11.20;8.60;;;;;;;19.83;63.66;96933.55;1804698;77;25716;-84
2021/07/03 10:30:29;;;;;;;9.80;7.53;;;;;;;19.91;63.25;96931.06;1785128;79;25271;-81
2021/07/03 10:33:19;;;;;;;9.55;7.42;;;;;;;20.04;62.96;96926.88;1803263;77;26428;-82
2021/07/03 10:35:53;;;;;;;10.70;8.28;;;;;;;20.20;62.80;96921.55;1804782;77;25684;-83
2021/07/03 10:38:25;;;;;;;12.85;8.88;;;;;;;20.21;62.60;96924.56;1812449;78;27308;-83
2021/07/03 10:40:56;;;;;;;9.40;7.55;;;;;;;20.18;62.69;96927.04;1797212;79;25849;-83
2021/07/03 10:43:23;;;;;;;13.00;8.10;;;;;;;20.10;62.16;96924.36;1799936;78;25803;-82
2021/07/03 10:45:53;;;;;;;9.55;8.35;;;;;;;20.06;61.99;96920.54;1796740;79;25247;-81
2021/07/03 10:48:24;;;;;;;10.30;8.20;;;;;;;20.06;61.98;96923.28;1790810;79;25666;-83
2021/07/03 10:50:58;;;;;;;9.25;8.20;;;;;;;20.08;62.01;96919.71;1792523;77;27064;-83
2021/07/03 10:53:30;;;;;;;11.35;7.87;;;;;;;20.07;62.18;96918.07;1813863;77;25698;-83
2021/07/03 10:56:14;;;;;;;9.48;8.28;;;;;;;20.08;62.03;96915.05;1792576;77;25732;-83
2021/07/03 10:58:43;;;;;;;14.13;8.85;;;;;;;20.13;61.79;96917.77;1792807;79;25693;-83
2021/07/03 11:01:16;;;;;;;8.00;7.08;;;;;;;20.13;61.56;96922.43;1792866;77;25717;-83
2021/07/03 11:03:49;;;;;;;10.35;7.50;;;;;;;20.18;62.02;96921.01;1800863;78;27398;-84
2021/07/03 11:06:21;;;;;;;14.83;8.73;;;;;;;20.26;61.70;96920.42;1811210;78;26117;-82
2021/07/03 11:08:49;;;;;;;10.82;8.45;;;;;;;20.31;61.75;96920.92;1811229;77;25711;-82
2021/07/03 11:11:17;;;;;;;11.28;8.08;;;;;;;20.34;61.35;96918.44;1802014;78;25704;-86
2021/07/03 11:13:48;;;;;;;11.03;7.95;;;;;;;20.38;61.04;96914.62;1810797;77;25629;-83
2021/07/03 11:16:15;;;;;;;12.63;7.95;;;;;;;20.42;60.93;96913.73;1792196;78;26884;-82
2021/07/03 11:18:47;;;;;;;9.40;8.40;;;;;;;20.45;60.76;96911.80;1821609;78;25676;-85
2021/07/03 11:21:16;;;;;;;12.68;8.20;;;;;;;20.49;60.76;96912.88;1822182;77;26037;-89
2021/07/03 11:23:42;;;;;;;11.10;8.65;;;;;;;20.48;60.40;96911.23;1799810;77;25714;-80
2021/07/03 11:26:13;;;;;;;13.88;8.83;;;;;;;20.51;60.22;96913.14;1821898;77;26401;-84
2021/07/03 11:28:40;;;;;;;9.90;8.85;;;;;;;20.54;60.11;96913.38;1821363;77;27589;-85
2021/07/03 11:31:08;;;;;;;10.65;8.75;;;;;;;20.49;59.98;96907.40;1821884;77;26068;-83